Time;durP1;ratioP1;P1;durP2;ratioP2;P2;SDS_P1;SDS_P2;PMS_P1;PMS_P2;Temp;Humidity;BMP_temperature;BMP_pressure;BME280_temperature;BME280_humidity;BME280_pressure;Samples;Min_cycle;Max_cycle;Signal;HPM_P1;HPM_P2
2021/10/23 00:00:28;;;;;;;;;;;;;;;;;;5134293;27;19930;-71
2021/10/23 00:02:54;;;;;;;;;;;;;;;;;;5134736;27;19923;-71
2021/10/23 00:05:21;;;;;;;;;;;;;;;;;;5134524;27;19924;-69
2021/10/23 00:07:47;;;;;;;;;;;;;;;;;;5134605;27;20303;-69
2021/10/23 00:10:13;;;;;;;;;;;;;;;;;;5134361;27;19930;-69
2021/10/23 00:12:40;;;;;;;;;;;;;;;;;;5134898;27;19924;-69
2021/10/23 00:15:06;;;;;;;;;;;;;;;;;;5134419;27;20373;-69
2021/10/23 00:17:32;;;;;;;;;;;;;;;;;;5134160;27;19923;-69
2021/10/23 00:20:00;;;;;;;;;;;;;;;;;;5134568;27;19923;-69
2021/10/23 00:22:27;;;;;;;;;;;;;;;;;;5134141;27;20112;-70
2021/10/23 00:24:53;;;;;;;;;;;;;;;;;;5134505;27;19930;-69
2021/10/23 00:27:19;;;;;;;;;;;;;;;;;;5133841;27;19923;-71
2021/10/23 00:29:46;;;;;;;;;;;;;;;;;;5134366;27;19929;-71
2021/10/23 00:32:12;;;;;;;;;;;;;;;;;;5134239;27;19923;-71
2021/10/23 00:34:38;;;;;;;;;;;;;;;;;;5134422;27;19929;-70
2021/10/23 00:37:04;;;;;;;;;;;;;;;;;;5134089;27;19923;-70
2021/10/23 00:39:31;;;;;;;;;;;;;;;;;;5134143;27;19930;-71
2021/10/23 00:41:57;;;;;;;;;;;;;;;;;;5133802;27;20404;-70
2021/10/23 00:44:24;;;;;;;;;;;;;;;;;;5133898;27;19923;-70
2021/10/23 00:46:50;;;;;;;;;;;;;;;;;;5134256;27;19931;-70
2021/10/23 00:49:16;;;;;;;;;;;;;;;;;;5133653;27;20386;-71
2021/10/23 00:51:43;;;;;;;;;;;;;;;;;;5133731;27;19924;-70
2021/10/23 00:54:09;;;;;;;;;;;;;;;;;;5134053;27;19946;-71
2021/10/23 00:56:35;;;;;;;;;;;;;;;;;;5133359;27;19924;-70
2021/10/23 00:59:02;;;;;;;;;;;;;;;;;;5133975;27;19923;-70
2021/10/23 01:01:28;;;;;;;;;;;;;;;;;;5133438;27;20308;-70
2021/10/23 01:03:54;;;;;;;;;;;;;;;;;;5132967;27;19929;-71
2021/10/23 01:06:21;;;;;;;;;;;;;;;;;;5133463;27;19930;-70
2021/10/23 01:08:47;;;;;;;;;;;;;;;;;;5133507;27;20400;-70
2021/10/23 01:11:13;;;;;;;;;;;;;;;;;;5133278;27;19929;-70
2021/10/23 01:13:40;;;;;;;;;;;;;;;;;;5133694;27;19958;-69
2021/10/23 01:16:06;;;;;;;;;;;;;;;;;;5133825;27;19924;-69
2021/10/23 01:18:32;;;;;;;;;;;;;;;;;;5133116;28;19927;-69
2021/10/23 01:20:58;;;;;;;;;;;;;;;;;;5133704;28;19928;-69
2021/10/23 01:23:25;;;;;;;;;;;;;;;;;;5133531;28;20300;-69
2021/10/23 01:25:51;;;;;;;;;;;;;;;;;;5133199;28;19924;-69
2021/10/23 01:28:17;;;;;;;;;;;;;;;;;;5133414;28;19934;-69
2021/10/23 01:30:44;;;;;;;;;;;;;;;;;;5133306;28;20401;-70
2021/10/23 01:33:10;;;;;;;;;;;;;;;;;;5133203;28;19931;-70
2021/10/23 01:35:37;;;;;;;;;;;;;;;;;;5133435;28;19923;-69
2021/10/23 01:38:03;;;;;;;;;;;;;;;;;;5133468;28;19930;-70
2021/10/23 01:40:29;;;;;;;;;;;;;;;;;;5132930;28;20407;-71
2021/10/23 01:42:55;;;;;;;;;;;;;;;;;;5133107;28;19929;-70
2021/10/23 01:45:22;;;;;;;;;;;;;;;;;;5133463;28;19930;-70
2021/10/23 01:47:48;;;;;;;;;;;;;;;;;;5133081;28;19941;-70
2021/10/23 01:50:14;;;;;;;;;;;;;;;;;;5132899;28;19923;-70
2021/10/23 01:52:41;;;;;;;;;;;;;;;;;;5133070;28;20202;-70
2021/10/23 01:55:07;;;;;;;;;;;;;;;;;;5133398;28;19923;-70
2021/10/23 01:57:33;;;;;;;;;;;;;;;;;;5132799;28;19924;-70
2021/10/23 02:00:00;;;;;;;;;;;;;;;;;;5133003;28;19923;-70
2021/10/23 02:02:26;;;;;;;;;;;;;;;;;;5133062;28;19923;-70
2021/10/23 02:04:53;;;;;;;;;;;;;;;;;;5132910;28;19930;-70
2021/10/23 02:07:19;;;;;;;;;;;;;;;;;;5132819;28;20029;-70
2021/10/23 02:09:45;;;;;;;;;;;;;;;;;;5133276;28;19923;-70
2021/10/23 02:12:12;;;;;;;;;;;;;;;;;;5132717;28;20288;-70
2021/10/23 02:14:38;;;;;;;;;;;;;;;;;;5132901;28;19923;-70
2021/10/23 02:17:04;;;;;;;;;;;;;;;;;;5136487;27;19923;-70
2021/10/23 02:19:31;;;;;;;;;;;;;;;;;;5136835;27;19923;-70
2021/10/23 02:21:57;;;;;;;;;;;;;;;;;;5136720;27;19929;-70
2021/10/23 02:24:24;;;;;;;;;;;;;;;;;;5136614;27;19923;-70
2021/10/23 02:26:50;;;;;;;;;;;;;;;;;;5136524;27;19923;-70
2021/10/23 02:29:16;;;;;;;;;;;;;;;;;;5136544;27;19923;-70
2021/10/23 02:31:43;;;;;;;;;;;;;;;;;;5136490;27;19938;-70
2021/10/23 02:34:09;;;;;;;;;;;;;;;;;;5136660;27;19935;-70
2021/10/23 02:36:35;;;;;;;;;;;;;;;;;;5136142;27;20370;-70
2021/10/23 02:39:01;;;;;;;;;;;;;;;;;;5136333;27;19923;-70
2021/10/23 02:41:28;;;;;;;;;;;;;;;;;;5136619;27;19941;-70
2021/10/23 02:43:54;;;;;;;;;;;;;;;;;;5136148;27;20378;-70
2021/10/23 02:46:20;;;;;;;;;;;;;;;;;;5135791;27;19924;-70
2021/10/23 02:48:47;;;;;;;;;;;;;;;;;;5136438;27;19923;-70
2021/10/23 02:51:13;;;;;;;;;;;;;;;;;;5135955;27;19934;-70
2021/10/23 02:53:39;;;;;;;;;;;;;;;;;;5136224;27;19934;-71
2021/10/23 02:56:06;;;;;;;;;;;;;;;;;;5135936;27;20366;-70
2021/10/23 02:58:32;;;;;;;;;;;;;;;;;;5135807;27;20377;-71
2021/10/23 03:00:59;;;;;;;;;;;;;;;;;;5135880;27;19923;-71
2021/10/23 03:03:25;;;;;;;;;;;;;;;;;;5135870;27;19923;-71
2021/10/23 03:05:51;;;;;;;;;;;;;;;;;;5135532;27;19924;-71
2021/10/23 03:08:18;;;;;;;;;;;;;;;;;;5135439;27;19928;-70
2021/10/23 03:10:44;;;;;;;;;;;;;;;;;;5135810;27;19923;-71
2021/10/23 03:13:10;;;;;;;;;;;;;;;;;;5135634;27;19927;-71
2021/10/23 03:15:36;;;;;;;;;;;;;;;;;;5135727;27;19927;-71
2021/10/23 03:18:03;;;;;;;;;;;;;;;;;;5135824;27;20081;-71
2021/10/23 03:20:29;;;;;;;;;;;;;;;;;;5135268;27;20301;-71
2021/10/23 03:22:55;;;;;;;;;;;;;;;;;;5135466;27;19930;-71
2021/10/23 03:25:22;;;;;;;;;;;;;;;;;;5135312;27;19923;-71
2021/10/23 03:27:48;;;;;;;;;;;;;;;;;;5134660;27;20382;-71
2021/10/23 03:30:14;;;;;;;;;;;;;;;;;;5135074;27;19930;-71
2021/10/23 03:32:41;;;;;;;;;;;;;;;;;;5135582;27;19977;-71
2021/10/23 03:35:07;;;;;;;;;;;;;;;;;;5135331;27;20413;-71
2021/10/23 03:37:33;;;;;;;;;;;;;;;;;;5134904;27;19930;-71
2021/10/23 03:39:59;;;;;;;;;;;;;;;;;;5135265;27;19923;-71
2021/10/23 03:42:26;;;;;;;;;;;;;;;;;;5134875;27;20288;-71
2021/10/23 03:44:52;;;;;;;;;;;;;;;;;;5135026;27;19928;-71
2021/10/23 03:47:18;;;;;;;;;;;;;;;;;;5134995;27;19923;-71
2021/10/23 03:49:45;;;;;;;;;;;;;;;;;;5134940;27;19923;-71
2021/10/23 03:52:11;;;;;;;;;;;;;;;;;;5135029;27;19927;-70
2021/10/23 03:54:37;;;;;;;;;;;;;;;;;;5135086;27;20284;-71
2021/10/23 03:57:04;;;;;;;;;;;;;;;;;;5134828;27;19923;-71
2021/10/23 03:59:30;;;;;;;;;;;;;;;;;;5134352;27;19931;-71
2021/10/23 04:01:56;;;;;;;;;;;;;;;;;;5134741;27;19929;-71
2021/10/23 04:04:23;;;;;;;;;;;;;;;;;;5134469;27;20374;-71
2021/10/23 04:06:49;;;;;;;;;;;;;;;;;;5134842;27;19931;-71
2021/10/23 04:09:15;;;;;;;;;;;;;;;;;;5134661;27;19923;-71
2021/10/23 04:11:42;;;;;;;;;;;;;;;;;;5134436;27;20389;-71
2021/10/23 04:14:08;;;;;;;;;;;;;;;;;;5134702;27;19976;-70
2021/10/23 04:16:35;;;;;;;;;;;;;;;;;;5134542;27;19930;-71
2021/10/23 04:19:01;;;;;;;;;;;;;;;;;;5134448;27;20591;-70
2021/10/23 04:21:27;;;;;;;;;;;;;;;;;;5133956;27;19930;-70
2021/10/23 04:23:53;;;;;;;;;;;;;;;;;;5134562;27;19923;-71
2021/10/23 04:26:20;;;;;;;;;;;;;;;;;;5133951;27;19930;-70
2021/10/23 04:28:46;;;;;;;;;;;;;;;;;;5134564;27;19923;-71
2021/10/23 04:31:12;;;;;;;;;;;;;;;;;;5133844;27;20403;-71
2021/10/23 04:33:39;;;;;;;;;;;;;;;;;;5134058;27;19930;-71
2021/10/23 04:36:05;;;;;;;;;;;;;;;;;;5134354;27;19923;-70
2021/10/23 04:38:31;;;;;;;;;;;;;;;;;;5133335;27;20448;-70
2021/10/23 04:40:57;;;;;;;;;;;;;;;;;;5133539;27;19923;-70
2021/10/23 04:43:24;;;;;;;;;;;;;;;;;;5133917;27;19924;-71
2021/10/23 04:45:50;;;;;;;;;;;;;;;;;;5133781;27;20385;-70
2021/10/23 04:48:16;;;;;;;;;;;;;;;;;;5133963;27;19931;-71
2021/10/23 04:50:43;;;;;;;;;;;;;;;;;;5134146;27;19946;-71
2021/10/23 04:53:09;;;;;;;;;;;;;;;;;;5133730;27;19930;-70
2021/10/23 04:55:35;;;;;;;;;;;;;;;;;;5133720;27;19924;-70
2021/10/23 04:58:02;;;;;;;;;;;;;;;;;;5133708;27;20389;-71
2021/10/23 05:00:28;;;;;;;;;;;;;;;;;;5133351;27;19929;-71
2021/10/23 05:02:54;;;;;;;;;;;;;;;;;;5133994;27;19923;-70
2021/10/23 05:05:20;;;;;;;;;;;;;;;;;;5133160;27;19923;-71
2021/10/23 05:07:47;;;;;;;;;;;;;;;;;;5133484;27;19923;-70
2021/10/23 05:10:14;;;;;;;;;;;;;;;;;;5133630;27;19956;-71
2021/10/23 05:12:40;;;;;;;;;;;;;;;;;;5133882;27;20285;-70
2021/10/23 05:15:07;;;;;;;;;;;;;;;;;;5133501;28;19924;-71
2021/10/23 05:17:33;;;;;;;;;;;;;;;;;;5133453;27;19923;-70
2021/10/23 05:19:59;;;;;;;;;;;;;;;;;;5133872;27;19979;-70
2021/10/23 05:22:26;;;;;;;;;;;;;;;;;;5133175;28;19923;-70
2021/10/23 05:24:52;;;;;;;;;;;;;;;;;;5133686;28;19928;-70
2021/10/23 05:27:18;;;;;;;;;;;;;;;;;;5133239;28;20282;-70
2021/10/23 05:29:44;;;;;;;;;;;;;;;;;;5133261;28;19923;-70
2021/10/23 05:32:11;;;;;;;;;;;;;;;;;;5133396;28;19931;-70
2021/10/23 05:34:37;;;;;;;;;;;;;;;;;;5133585;28;20034;-70
2021/10/23 05:37:04;;;;;;;;;;;;;;;;;;5133232;28;20369;-70
2021/10/23 05:39:30;;;;;;;;;;;;;;;;;;5133210;28;19924;-70
2021/10/23 05:41:56;;;;;;;;;;;;;;;;;;5133157;28;20400;-71
2021/10/23 05:44:23;;;;;;;;;;;;;;;;;;5133037;28;19930;-71
2021/10/23 05:46:49;;;;;;;;;;;;;;;;;;5133538;28;19943;-70
2021/10/23 05:49:15;;;;;;;;;;;;;;;;;;5132956;28;20373;-70
2021/10/23 05:51:42;;;;;;;;;;;;;;;;;;5135882;27;19935;-71
2021/10/23 05:54:08;;;;;;;;;;;;;;;;;;5137593;27;19946;-71
2021/10/23 05:56:34;;;;;;;;;;;;;;;;;;5136962;27;19931;-71
2021/10/23 05:59:10;;;;;;;;;;;;;;;;;;5137093;27;19923;-71
2021/10/23 06:01:36;;;;;;;;;;;;;;;;;;5137194;27;20285;-71
2021/10/23 06:04:02;;;;;;;;;;;;;;;;;;5136811;27;19927;-71
2021/10/23 06:06:29;;;;;;;;;;;;;;;;;;5136825;27;19923;-71
2021/10/23 06:08:55;;;;;;;;;;;;;;;;;;5136970;27;20297;-71
2021/10/23 06:11:21;;;;;;;;;;;;;;;;;;5136678;27;19924;-71
2021/10/23 06:13:48;;;;;;;;;;;;;;;;;;5136975;27;19930;-71
2021/10/23 06:16:14;;;;;;;;;;;;;;;;;;5136867;27;19923;-70
2021/10/23 06:18:40;;;;;;;;;;;;;;;;;;5136771;27;20381;-70
2021/10/23 06:21:06;;;;;;;;;;;;;;;;;;5136718;27;19925;-70
2021/10/23 06:23:33;;;;;;;;;;;;;;;;;;5136654;27;19931;-70
2021/10/23 06:25:59;;;;;;;;;;;;;;;;;;5136525;27;19924;-71
2021/10/23 06:28:26;;;;;;;;;;;;;;;;;;5136553;27;19931;-71
2021/10/23 06:30:52;;;;;;;;;;;;;;;;;;5137143;27;19978;-70
2021/10/23 06:33:18;;;;;;;;;;;;;;;;;;5136195;27;19927;-70
2021/10/23 06:35:44;;;;;;;;;;;;;;;;;;5136541;27;19924;-70
2021/10/23 06:38:11;;;;;;;;;;;;;;;;;;5136699;27;19923;-71
2021/10/23 06:40:37;;;;;;;;;;;;;;;;;;5136328;27;19930;-70
2021/10/23 06:43:03;;;;;;;;;;;;;;;;;;5136575;27;19930;-70
2021/10/23 06:45:30;;;;;;;;;;;;;;;;;;5136170;27;19923;-70
2021/10/23 06:47:56;;;;;;;;;;;;;;;;;;5136163;27;19930;-70
2021/10/23 06:50:23;;;;;;;;;;;;;;;;;;5136124;27;19949;-70
2021/10/23 06:52:49;;;;;;;;;;;;;;;;;;5136388;27;19931;-70
2021/10/23 06:55:15;;;;;;;;;;;;;;;;;;5135772;27;20270;-70
2021/10/23 06:57:46;;;;;;;;;;;;;;;;;;5136452;27;19930;-70
2021/10/23 07:00:12;;;;;;;;;;;;;;;;;;5137058;27;19924;-70
2021/10/23 07:02:38;;;;;;;;;;;;;;;;;;5135006;27;19923;-71
2021/10/23 07:05:07;;;;;;;;;;;;;;;;;;5135400;27;20134;-71
2021/10/23 07:07:33;;;;;;;;;;;;;;;;;;5135556;27;19928;-71
2021/10/23 07:09:59;;;;;;;;;;;;;;;;;;5135571;27;20010;-71
2021/10/23 07:12:26;;;;;;;;;;;;;;;;;;5135748;27;19926;-71
2021/10/23 07:14:52;;;;;;;;;;;;;;;;;;5136011;27;20297;-71
2021/10/23 07:17:18;;;;;;;;;;;;;;;;;;5135410;27;19927;-71
2021/10/23 07:19:45;;;;;;;;;;;;;;;;;;5135786;27;19923;-71
2021/10/23 07:22:11;;;;;;;;;;;;;;;;;;5135469;27;19924;-71
2021/10/23 07:24:37;;;;;;;;;;;;;;;;;;5135605;27;19930;-71
2021/10/23 07:27:03;;;;;;;;;;;;;;;;;;5135650;27;19927;-71
2021/10/23 07:29:30;;;;;;;;;;;;;;;;;;5135205;27;19924;-71
2021/10/23 07:31:56;;;;;;;;;;;;;;;;;;5135690;27;19930;-71
2021/10/23 07:34:22;;;;;;;;;;;;;;;;;;5134904;27;20391;-71
2021/10/23 07:36:49;;;;;;;;;;;;;;;;;;5135350;27;19929;-71
2021/10/23 07:39:15;;;;;;;;;;;;;;;;;;5135314;27;20367;-71
2021/10/23 07:41:41;;;;;;;;;;;;;;;;;;5134938;27;19930;-71
2021/10/23 07:44:08;;;;;;;;;;;;;;;;;;5134984;27;19929;-71
2021/10/23 07:46:34;;;;;;;;;;;;;;;;;;5135030;27;19935;-69
2021/10/23 07:49:00;;;;;;;;;;;;;;;;;;5135329;27;19947;-70
2021/10/23 07:51:27;;;;;;;;;;;;;;;;;;5134700;27;19923;-70
2021/10/23 07:53:54;;;;;;;;;;;;;;;;;;5135278;27;19923;-70
2021/10/23 07:56:20;;;;;;;;;;;;;;;;;;5134548;27;19923;-70
2021/10/23 07:58:46;;;;;;;;;;;;;;;;;;5134929;27;19923;-70
2021/10/23 08:01:13;;;;;;;;;;;;;;;;;;5134786;27;19924;-70
2021/10/23 08:03:39;;;;;;;;;;;;;;;;;;5134686;27;19923;-70
2021/10/23 08:06:05;;;;;;;;;;;;;;;;;;5134881;27;19927;-70
2021/10/23 08:08:31;;;;;;;;;;;;;;;;;;5134549;27;19930;-71
2021/10/23 08:10:59;;;;;;;;;;;;;;;;;;5134677;27;19923;-70
2021/10/23 08:13:25;;;;;;;;;;;;;;;;;;5134691;27;20394;-69
2021/10/23 08:15:51;;;;;;;;;;;;;;;;;;5134668;27;20014;-70
2021/10/23 08:18:18;;;;;;;;;;;;;;;;;;5134043;27;19927;-70
2021/10/23 08:20:44;;;;;;;;;;;;;;;;;;5134885;27;19947;-70
2021/10/23 08:23:10;;;;;;;;;;;;;;;;;;5134227;27;20289;-70
2021/10/23 08:25:37;;;;;;;;;;;;;;;;;;5134765;27;20289;-70
2021/10/23 08:28:03;;;;;;;;;;;;;;;;;;5134159;27;19923;-70
2021/10/23 08:30:29;;;;;;;;;;;;;;;;;;5134116;27;19924;-70
2021/10/23 08:32:56;;;;;;;;;;;;;;;;;;5134347;27;19930;-70
2021/10/23 08:35:22;;;;;;;;;;;;;;;;;;5133868;27;20369;-70
2021/10/23 08:37:48;;;;;;;;;;;;;;;;;;5134391;27;19930;-70
2021/10/23 08:40:14;;;;;;;;;;;;;;;;;;5133808;27;20301;-70
2021/10/23 08:42:41;;;;;;;;;;;;;;;;;;5133830;27;19930;-70
2021/10/23 08:45:07;;;;;;;;;;;;;;;;;;5134260;27;19930;-70
2021/10/23 08:47:33;;;;;;;;;;;;;;;;;;5133583;27;19923;-70
2021/10/23 08:50:00;;;;;;;;;;;;;;;;;;5134118;27;19930;-70
2021/10/23 08:52:26;;;;;;;;;;;;;;;;;;5133499;27;20289;-70
2021/10/23 08:54:52;;;;;;;;;;;;;;;;;;5133682;27;19930;-70
2021/10/23 08:57:19;;;;;;;;;;;;;;;;;;5133816;27;19931;-70
2021/10/23 08:59:45;;;;;;;;;;;;;;;;;;5133548;27;19927;-70
2021/10/23 09:02:11;;;;;;;;;;;;;;;;;;5133406;27;19924;-70
2021/10/23 09:04:38;;;;;;;;;;;;;;;;;;5133516;27;19924;-69
2021/10/23 09:07:04;;;;;;;;;;;;;;;;;;5133632;27;20323;-70
2021/10/23 09:09:30;;;;;;;;;;;;;;;;;;5133363;27;19924;-69
2021/10/23 09:11:57;;;;;;;;;;;;;;;;;;5134024;27;19931;-70
2021/10/23 09:14:23;;;;;;;;;;;;;;;;;;5133793;27;19924;-70
2021/10/23 09:16:49;;;;;;;;;;;;;;;;;;5133543;27;19930;-70
2021/10/23 09:19:16;;;;;;;;;;;;;;;;;;5133279;27;19927;-72
2021/10/23 09:21:42;;;;;;;;;;;;;;;;;;5133705;27;19927;-70
2021/10/23 09:24:08;;;;;;;;;;;;;;;;;;5133407;28;19923;-71
2021/10/23 09:26:35;;;;;;;;;;;;;;;;;;5132737;27;20480;-71
2021/10/23 09:29:01;;;;;;;;;;;;;;;;;;5133277;28;19955;-71
2021/10/23 09:31:28;;;;;;;;;;;;;;;;;;5133148;28;19945;-68
2021/10/23 09:33:54;;;;;;;;;;;;;;;;;;5133469;28;19923;-70
2021/10/23 09:36:20;;;;;;;;;;;;;;;;;;5132968;28;20373;-70
2021/10/23 09:38:46;;;;;;;;;;;;;;;;;;5133575;28;19923;-70
2021/10/23 09:41:13;;;;;;;;;;;;;;;;;;5133295;28;20289;-70
2021/10/23 09:43:39;;;;;;;;;;;;;;;;;;5133106;28;19923;-70
2021/10/23 09:46:07;;;;;;;;;;;;;;;;;;5133533;28;19943;-70
2021/10/23 09:48:33;;;;;;;;;;;;;;;;;;5133145;28;19928;-70
2021/10/23 09:50:59;;;;;;;;;;;;;;;;;;5133050;28;19923;-70
2021/10/23 09:53:26;;;;;;;;;;;;;;;;;;5133224;28;19934;-70
2021/10/23 09:55:53;;;;;;;;;;;;;;;;;;5133401;28;20289;-70
2021/10/23 09:58:19;;;;;;;;;;;;;;;;;;5132933;28;19930;-70
2021/10/23 10:00:46;;;;;;;;;;;;;;;;;;5132885;28;19927;-70
2021/10/23 10:03:13;;;;;;;;;;;;;;;;;;5132801;28;19924;-69
2021/10/23 10:05:39;;;;;;;;;;;;;;;;;;5133283;28;19930;-69
2021/10/23 10:08:06;;;;;;;;;;;;;;;;;;5132731;28;20063;-70
2021/10/23 10:10:32;;;;;;;;;;;;;;;;;;5132612;28;19966;-69
2021/10/23 10:12:58;;;;;;;;;;;;;;;;;;5133304;28;19923;-70
2021/10/23 10:15:25;;;;;;;;;;;;;;;;;;5132948;28;19923;-72
2021/10/23 10:17:51;;;;;;;;;;;;;;;;;;5133058;28;19928;-72
2021/10/23 10:20:17;;;;;;;;;;;;;;;;;;5133007;28;20018;-72
2021/10/23 10:22:44;;;;;;;;;;;;;;;;;;5132891;28;19923;-72
2021/10/23 10:25:10;;;;;;;;;;;;;;;;;;5133045;28;19924;-72
2021/10/23 10:27:36;;;;;;;;;;;;;;;;;;5132420;28;20290;-71
2021/10/23 10:30:03;;;;;;;;;;;;;;;;;;5133031;27;20402;-71
2021/10/23 10:32:31;;;;;;;;;;;;;;;;;;5132495;28;19930;-73
2021/10/23 10:37:53;;;;;;;;;;;;;;;;;;5133982;27;19918;-73
2021/10/23 10:40:30;;;;;;;;;;;;;;;;;;5136162;27;20397;-73
2021/10/23 10:42:55;;;;;;;;;;;;;;;;;;5136607;27;19934;-74
2021/10/23 10:45:22;;;;;;;;;;;;;;;;;;5135858;27;20010;-74
2021/10/23 10:47:48;;;;;;;;;;;;;;;;;;5136117;27;19924;-74
2021/10/23 10:50:14;;;;;;;;;;;;;;;;;;5135822;27;19923;-74
2021/10/23 10:52:40;;;;;;;;;;;;;;;;;;5135469;27;19930;-74
2021/10/23 10:55:07;;;;;;;;;;;;;;;;;;5136295;27;19930;-73
2021/10/23 10:57:33;;;;;;;;;;;;;;;;;;5135824;27;20267;-74
2021/10/23 10:59:59;;;;;;;;;;;;;;;;;;5135817;27;19929;-73
2021/10/23 11:02:26;;;;;;;;;;;;;;;;;;5136136;27;19927;-73
2021/10/23 11:04:52;;;;;;;;;;;;;;;;;;5135713;27;20382;-74
2021/10/23 11:07:18;;;;;;;;;;;;;;;;;;5135474;27;19927;-74
2021/10/23 11:09:45;;;;;;;;;;;;;;;;;;5136070;27;19924;-74
2021/10/23 11:12:11;;;;;;;;;;;;;;;;;;5136126;27;19970;-74
2021/10/23 11:14:37;;;;;;;;;;;;;;;;;;5135726;27;20539;-73
2021/10/23 11:17:04;;;;;;;;;;;;;;;;;;5135577;27;19923;-74
2021/10/23 11:19:31;;;;;;;;;;;;;;;;;;5135237;27;19923;-74
2021/10/23 11:21:57;;;;;;;;;;;;;;;;;;5135798;27;19929;-73
2021/10/23 11:24:23;;;;;;;;;;;;;;;;;;5135343;27;20296;-73
2021/10/23 11:26:49;;;;;;;;;;;;;;;;;;5135403;27;19930;-73
2021/10/23 11:29:16;;;;;;;;;;;;;;;;;;5135066;27;19934;-72
2021/10/23 11:31:43;;;;;;;;;;;;;;;;;;5135649;27;19923;-71
2021/10/23 11:34:09;;;;;;;;;;;;;;;;;;5135384;27;19931;-71
2021/10/23 11:36:36;;;;;;;;;;;;;;;;;;5135350;27;19930;-72
2021/10/23 11:39:02;;;;;;;;;;;;;;;;;;5135566;27;19930;-76
2021/10/23 11:41:28;;;;;;;;;;;;;;;;;;5134865;27;19930;-75
2021/10/23 11:43:55;;;;;;;;;;;;;;;;;;5135166;27;19930;-81
2021/10/23 11:46:21;;;;;;;;;;;;;;;;;;5136916;27;19924;-74
2021/10/23 11:48:47;;;;;;;;;;;;;;;;;;5134550;27;20394;-75
2021/10/23 11:51:14;;;;;;;;;;;;;;;;;;5134799;27;19923;-76
2021/10/23 11:53:40;;;;;;;;;;;;;;;;;;5135336;27;19923;-76
2021/10/23 11:56:06;;;;;;;;;;;;;;;;;;5118538;27;19928;-76
2021/10/23 11:58:33;;;;;;;;;;;;;;;;;;5100598;28;19935;-76
2021/10/23 12:00:59;;;;;;;;;;;;;;;;;;5109940;28;20329;-75
2021/10/23 12:03:26;;;;;;;;;;;;;;;;;;5113378;28;19924;-75
2021/10/23 12:05:52;;;;;;;;;;;;;;;;;;5094083;28;19924;-77
2021/10/23 12:08:18;;;;;;;;;;;;;;;;;;5093469;28;20302;-76
2021/10/23 12:10:45;;;;;;;;;;;;;;;;;;5093589;28;19924;-76
2021/10/23 12:13:11;;;;;;;;;;;;;;;;;;5104575;28;19923;-75
2021/10/23 12:15:37;;;;;;;;;;;;;;;;;;5113949;28;20301;-75
2021/10/23 12:18:06;;;;;;;;;;;;;;;;;;5113812;28;20453;-74
2021/10/23 12:20:33;;;;;;;;;;;;;;;;;;5114032;28;19963;-76
2021/10/23 12:22:59;;;;;;;;;;;;;;;;;;5113705;28;20274;-75
2021/10/23 12:25:25;;;;;;;;;;;;;;;;;;5113611;28;19924;-76
2021/10/23 12:27:52;;;;;;;;;;;;;;;;;;5113958;28;19930;-76
2021/10/23 12:30:18;;;;;;;;;;;;;;;;;;5102329;28;20339;-76
2021/10/23 12:32:44;;;;;;;;;;;;;;;;;;5093467;28;19931;-75
2021/10/23 12:35:11;;;;;;;;;;;;;;;;;;5093302;28;20424;-75
2021/10/23 12:37:38;;;;;;;;;;;;;;;;;;5093241;28;19928;-76
2021/10/23 12:40:04;;;;;;;;;;;;;;;;;;5093390;28;19924;-73
2021/10/23 12:42:31;;;;;;;;;;;;;;;;;;5092482;28;19924;-74
2021/10/23 12:44:57;;;;;;;;;;;;;;;;;;5093285;28;19928;-74
2021/10/23 12:47:23;;;;;;;;;;;;;;;;;;5091140;28;20263;-75
2021/10/23 12:49:50;;;;;;;;;;;;;;;;;;5092493;28;19930;-75
2021/10/23 12:52:16;;;;;;;;;;;;;;;;;;5092963;28;19924;-74
2021/10/23 12:54:42;;;;;;;;;;;;;;;;;;5093087;28;19924;-75
2021/10/23 12:57:08;;;;;;;;;;;;;;;;;;5092735;28;19924;-74
2021/10/23 12:59:35;;;;;;;;;;;;;;;;;;5092184;28;19939;-75
2021/10/23 13:02:01;;;;;;;;;;;;;;;;;;5092441;28;20378;-75
2021/10/23 13:04:27;;;;;;;;;;;;;;;;;;5103685;28;19934;-74
2021/10/23 13:06:54;;;;;;;;;;;;;;;;;;5113219;28;19924;-74
2021/10/23 13:09:21;;;;;;;;;;;;;;;;;;5112893;28;19928;-75
2021/10/23 13:11:47;;;;;;;;;;;;;;;;;;5113050;28;19931;-76
2021/10/23 13:14:14;;;;;;;;;;;;;;;;;;5112646;28;19923;-76
2021/10/23 13:16:40;;;;;;;;;;;;;;;;;;5115762;28;19935;-74
2021/10/23 13:19:06;;;;;;;;;;;;;;;;;;5134859;27;20289;-74
2021/10/23 13:21:33;;;;;;;;;;;;;;;;;;5128387;28;19928;-75
2021/10/23 13:23:59;;;;;;;;;;;;;;;;;;5116818;28;20014;-76
2021/10/23 13:26:25;;;;;;;;;;;;;;;;;;5132082;28;19923;-76
2021/10/23 13:28:52;;;;;;;;;;;;;;;;;;5133477;28;19930;-74
2021/10/23 13:31:20;;;;;;;;;;;;;;;;;;5133368;28;19927;-75
2021/10/23 13:33:46;;;;;;;;;;;;;;;;;;5123316;28;19923;-75
2021/10/23 13:36:12;;;;;;;;;;;;;;;;;;5112700;28;19923;-75
2021/10/23 13:38:39;;;;;;;;;;;;;;;;;;5113041;28;19946;-74
2021/10/23 13:41:05;;;;;;;;;;;;;;;;;;5112618;28;20386;-74
2021/10/23 13:43:31;;;;;;;;;;;;;;;;;;5112617;28;20070;-74
2021/10/23 13:45:58;;;;;;;;;;;;;;;;;;5112947;28;19928;-74
2021/10/23 13:48:24;;;;;;;;;;;;;;;;;;5112402;28;20400;-74
2021/10/23 13:50:50;;;;;;;;;;;;;;;;;;5121613;28;19930;-74
2021/10/23 13:53:17;;;;;;;;;;;;;;;;;;5133125;28;19931;-74
2021/10/23 13:55:43;;;;;;;;;;;;;;;;;;5133257;27;19931;-74
2021/10/23 13:58:09;;;;;;;;;;;;;;;;;;5133540;28;19996;-73
2021/10/23 14:00:35;;;;;;;;;;;;;;;;;;5132972;27;19972;-74
2021/10/23 14:03:02;;;;;;;;;;;;;;;;;;5133281;28;19923;-74
2021/10/23 14:05:28;;;;;;;;;;;;;;;;;;5112858;28;20305;-74
2021/10/23 14:07:54;;;;;;;;;;;;;;;;;;5112677;28;19924;-74
2021/10/23 14:10:21;;;;;;;;;;;;;;;;;;5112426;28;19924;-74
2021/10/23 14:12:47;;;;;;;;;;;;;;;;;;5115275;28;19923;-74
2021/10/23 14:15:13;;;;;;;;;;;;;;;;;;5116145;28;19930;-74
2021/10/23 14:17:40;;;;;;;;;;;;;;;;;;5116554;28;19931;-74
2021/10/23 14:20:06;;;;;;;;;;;;;;;;;;5116060;28;20293;-74
2021/10/23 14:22:32;;;;;;;;;;;;;;;;;;5115907;28;19934;-74
2021/10/23 14:24:59;;;;;;;;;;;;;;;;;;5125386;27;19934;-74
2021/10/23 14:27:42;;;;;;;;;;;;;;;;;;5136416;27;20292;-75
2021/10/23 14:30:08;;;;;;;;;;;;;;;;;;5136472;27;19928;-74
2021/10/23 14:32:35;;;;;;;;;;;;;;;;;;5136197;27;19930;-74
2021/10/23 14:35:01;;;;;;;;;;;;;;;;;;5136794;27;19924;-74
2021/10/23 14:37:27;;;;;;;;;;;;;;;;;;5136117;27;19924;-74
2021/10/23 14:39:54;;;;;;;;;;;;;;;;;;5136754;27;19930;-75
2021/10/23 14:42:20;;;;;;;;;;;;;;;;;;5136216;27;19923;-73
2021/10/23 14:44:46;;;;;;;;;;;;;;;;;;5136800;27;20386;-75
2021/10/23 14:47:13;;;;;;;;;;;;;;;;;;5136067;27;19924;-74
2021/10/23 14:49:39;;;;;;;;;;;;;;;;;;5136357;27;19927;-74
2021/10/23 14:52:05;;;;;;;;;;;;;;;;;;5136097;27;20289;-74
2021/10/23 14:54:31;;;;;;;;;;;;;;;;;;5135790;27;19923;-74
2021/10/23 14:56:58;;;;;;;;;;;;;;;;;;5136403;27;19924;-74
2021/10/23 14:59:24;;;;;;;;;;;;;;;;;;5135763;27;19930;-74
2021/10/23 15:01:50;;;;;;;;;;;;;;;;;;5135914;27;19924;-74
2021/10/23 15:04:18;;;;;;;;;;;;;;;;;;5126094;27;19924;-74
2021/10/23 15:06:45;;;;;;;;;;;;;;;;;;5115290;28;20314;-73
2021/10/23 15:09:11;;;;;;;;;;;;;;;;;;5115442;28;19923;-74
2021/10/23 15:11:38;;;;;;;;;;;;;;;;;;5114997;28;20304;-74
2021/10/23 15:14:04;;;;;;;;;;;;;;;;;;5115509;28;19931;-73
2021/10/23 15:16:30;;;;;;;;;;;;;;;;;;5115058;28;19939;-74
2021/10/23 15:18:57;;;;;;;;;;;;;;;;;;5115368;28;19924;-74
2021/10/23 15:21:23;;;;;;;;;;;;;;;;;;5115013;28;20022;-74
2021/10/23 15:23:49;;;;;;;;;;;;;;;;;;5114277;28;19928;-74
2021/10/23 15:26:15;;;;;;;;;;;;;;;;;;5134678;27;19924;-75
2021/10/23 15:28:43;;;;;;;;;;;;;;;;;;5135637;27;19924;-75
2021/10/23 15:31:09;;;;;;;;;;;;;;;;;;5135621;27;19980;-75
2021/10/23 15:33:36;;;;;;;;;;;;;;;;;;5135467;27;20304;-75
2021/10/23 15:36:07;;;;;;;;;;;;;;;;;;5135151;27;19924;-74
2021/10/23 15:38:40;;;;;;;;;;;;;;;;;;5134977;27;19972;-74
2021/10/23 15:41:25;;;;;;;;;;;;;;;;;;5135562;27;20004;-75
2021/10/23 15:43:51;;;;;;;;;;;;;;;;;;5135046;27;20254;-74
2021/10/23 15:46:17;;;;;;;;;;;;;;;;;;5135150;27;19924;-74
2021/10/23 15:48:44;;;;;;;;;;;;;;;;;;5135242;27;19929;-74
2021/10/23 15:51:10;;;;;;;;;;;;;;;;;;5134909;27;20288;-74
2021/10/23 15:53:37;;;;;;;;;;;;;;;;;;5134823;27;20030;-74
2021/10/23 15:56:03;;;;;;;;;;;;;;;;;;5134973;27;19924;-74
2021/10/23 15:58:29;;;;;;;;;;;;;;;;;;5134786;27;19927;-73
2021/10/23 16:00:56;;;;;;;;;;;;;;;;;;5135253;27;19924;-73
2021/10/23 16:03:22;;;;;;;;;;;;;;;;;;5132275;27;19923;-73
2021/10/23 16:05:48;;;;;;;;;;;;;;;;;;5114805;28;19924;-73
2021/10/23 16:08:15;;;;;;;;;;;;;;;;;;5114013;28;19923;-73
2021/10/23 16:10:41;;;;;;;;;;;;;;;;;;5113959;28;19924;-73
2021/10/23 16:13:07;;;;;;;;;;;;;;;;;;5114381;28;20332;-73
2021/10/23 16:15:34;;;;;;;;;;;;;;;;;;5113585;28;19924;-73
2021/10/23 16:18:00;;;;;;;;;;;;;;;;;;5114048;28;19928;-73
2021/10/23 16:20:26;;;;;;;;;;;;;;;;;;5113640;28;20401;-73
2021/10/23 16:22:52;;;;;;;;;;;;;;;;;;5114175;28;19923;-73
2021/10/23 16:25:19;;;;;;;;;;;;;;;;;;5125620;27;19928;-73
2021/10/23 16:27:45;;;;;;;;;;;;;;;;;;5134335;27;20389;-74
2021/10/23 16:30:11;;;;;;;;;;;;;;;;;;5134234;27;20133;-73
2021/10/23 16:32:38;;;;;;;;;;;;;;;;;;5134552;27;19935;-73
2021/10/23 16:35:04;;;;;;;;;;;;;;;;;;5134105;27;20270;-73
2021/10/23 16:37:30;;;;;;;;;;;;;;;;;;5133895;27;19934;-74
2021/10/23 16:39:57;;;;;;;;;;;;;;;;;;5134328;27;19923;-74
2021/10/23 16:42:23;;;;;;;;;;;;;;;;;;5133723;27;20289;-73